createdAt,value
2018-12-12T00:01:54.981Z,21.9
2018-12-12T00:05:00.971Z,21.9
2018-12-12T00:08:06.983Z,21.9
2018-12-12T00:11:13.022Z,21.9
2018-12-12T00:14:19.035Z,21.9
2018-12-12T00:17:24.960Z,21.9
2018-12-12T00:20:30.875Z,21.9
2018-12-12T00:23:36.797Z,21.9
2018-12-12T00:26:42.706Z,21.9
2018-12-12T00:29:48.651Z,21.8
2018-12-12T00:32:54.519Z,21.8
2018-12-12T00:36:00.544Z,21.8
2018-12-12T00:39:06.427Z,21.8
2018-12-12T00:42:12.357Z,21.8
2018-12-12T00:45:19.652Z,21.8
2018-12-12T00:48:25.667Z,21.8
2018-12-12T00:51:31.595Z,21.8
2018-12-12T00:54:37.640Z,21.8
2018-12-12T00:57:43.659Z,21.8
2018-12-12T01:00:49.646Z,21.7
2018-12-12T01:03:55.641Z,21.7
2018-12-12T01:07:01.498Z,21.7
2018-12-12T01:10:07.438Z,21.7
2018-12-12T01:13:13.393Z,21.7
2018-12-12T01:16:19.401Z,21.6
2018-12-12T01:19:25.353Z,21.6
2018-12-12T01:22:34.124Z,21.6
2018-12-12T01:25:40.037Z,21.6
2018-12-12T01:28:46.048Z,21.6
2018-12-12T01:31:52.008Z,21.6
2018-12-12T01:34:57.925Z,21.6
2018-12-12T01:38:03.861Z,21.6
2018-12-12T01:41:09.785Z,21.6
2018-12-12T01:44:15.737Z,21.6
2018-12-12T01:47:21.701Z,21.6
2018-12-12T01:50:27.811Z,21.6
2018-12-12T01:53:34.074Z,21.6
2018-12-12T01:56:40.005Z,21.6
2018-12-12T01:59:46.050Z,21.6
2018-12-12T02:02:51.955Z,21.6
2018-12-12T02:05:57.881Z,21.6
2018-12-12T02:09:03.858Z,21.6
2018-12-12T02:12:09.720Z,21.6
2018-12-12T02:15:15.743Z,21.7
2018-12-12T02:18:21.628Z,21.7
2018-12-12T02:21:27.550Z,21.7
2018-12-12T02:24:33.446Z,21.7
2018-12-12T02:27:39.380Z,21.8
2018-12-12T02:30:45.274Z,21.8
2018-12-12T02:33:51.219Z,21.9
2018-12-12T02:36:59.292Z,21.9
2018-12-12T02:40:05.295Z,21.9
2018-12-12T02:43:11.217Z,22
2018-12-12T02:46:17.228Z,22
2018-12-12T02:49:23.234Z,22
2018-12-12T02:52:29.282Z,22.1
2018-12-12T02:55:35.273Z,22.1
2018-12-12T02:58:41.269Z,22.2
2018-12-12T03:01:47.292Z,22.2
2018-12-12T03:04:53.226Z,22.2
2018-12-12T03:07:59.129Z,22.3
2018-12-12T03:11:05.052Z,22.3
2018-12-12T03:14:10.946Z,22.3
2018-12-12T03:17:16.957Z,22.4
2018-12-12T03:20:22.932Z,22.4
2018-12-12T03:23:28.886Z,22.4
2018-12-12T03:26:34.841Z,22.5
2018-12-12T03:29:40.927Z,22.5
2018-12-12T03:32:46.950Z,22.5
2018-12-12T03:35:53.016Z,22.5
2018-12-12T03:38:58.929Z,22.6
2018-12-12T03:42:04.877Z,22.6
2018-12-12T03:45:10.845Z,22.6
2018-12-12T03:48:16.800Z,22.7
2018-12-12T03:51:22.747Z,22.7
2018-12-12T03:54:28.764Z,22.8
2018-12-12T03:57:34.812Z,22.8
2018-12-12T04:00:40.752Z,22.8
2018-12-12T04:03:46.678Z,22.9
2018-12-12T04:06:55.098Z,22.9
2018-12-12T04:10:01.027Z,23
2018-12-12T04:13:09.992Z,23
2018-12-12T04:16:16.013Z,23.1
2018-12-12T04:19:21.989Z,23.1
2018-12-12T04:22:28.003Z,23.1
2018-12-12T04:25:34.250Z,23.2
2018-12-12T04:28:40.488Z,23.2
2018-12-12T04:31:46.566Z,23.3
2018-12-12T04:34:52.525Z,23.3
2018-12-12T04:37:58.562Z,23.3
2018-12-12T04:41:04.455Z,23.4
2018-12-12T04:44:10.455Z,23.4
2018-12-12T04:47:16.383Z,23.4
2018-12-12T04:50:22.334Z,23.5
2018-12-12T04:53:28.414Z,23.5
2018-12-12T04:56:34.372Z,23.5
2018-12-12T04:59:40.301Z,23.6
2018-12-12T05:02:46.178Z,23.6
2018-12-12T05:05:52.203Z,23.6
2018-12-12T05:08:58.201Z,23.6
2018-12-12T05:12:04.342Z,23.7
2018-12-12T05:15:10.231Z,23.7
2018-12-12T05:18:16.225Z,23.7
2018-12-12T05:21:22.140Z,23.7
2018-12-12T05:24:28.065Z,23.8
2018-12-12T05:27:34.153Z,23.8
2018-12-12T05:30:40.018Z,23.8
2018-12-12T05:33:45.963Z,23.9
2018-12-12T05:36:51.886Z,23.9
2018-12-12T05:39:57.813Z,23.9
2018-12-12T05:43:03.724Z,24
2018-12-12T05:46:09.623Z,24
2018-12-12T05:49:15.642Z,24
2018-12-12T05:52:21.530Z,24
2018-12-12T05:55:28.829Z,24.1
2018-12-12T05:58:34.859Z,24.2
2018-12-12T06:01:40.792Z,24.2
2018-12-12T06:04:46.855Z,24.2
2018-12-12T06:07:52.819Z,24.3
2018-12-12T06:10:58.895Z,24.4
2018-12-12T06:14:04.859Z,24.4
2018-12-12T06:17:10.827Z,24.4
2018-12-12T06:20:16.770Z,24.4
2018-12-12T06:23:22.759Z,24.5
2018-12-12T06:26:28.595Z,24.5
2018-12-12T06:29:41.091Z,24.5
2018-12-12T06:32:47.134Z,24.6
2018-12-12T06:38:57.447Z,24.7
2018-12-12T06:45:10.489Z,24.8
2018-12-12T06:48:16.580Z,24.8
2018-12-12T06:51:22.478Z,24.9
2018-12-12T06:54:30.891Z,24.9
2018-12-12T06:57:36.909Z,24.9
2018-12-12T07:00:43.034Z,25
2018-12-12T07:03:48.949Z,25
2018-12-12T07:06:54.876Z,25
2018-12-12T07:10:02.754Z,25
2018-12-12T07:13:08.720Z,25.1
2018-12-12T07:16:17.643Z,25.1
2018-12-12T07:19:23.545Z,25.1
2018-12-12T07:22:29.556Z,25.1
2018-12-12T07:25:35.462Z,25.2
2018-12-12T07:28:42.379Z,25.2
2018-12-12T07:31:49.553Z,25.2
2018-12-12T07:34:55.745Z,25.3
2018-12-12T07:38:01.785Z,25.3
2018-12-12T07:41:07.792Z,25.3
2018-12-12T07:44:13.695Z,25.4
2018-12-12T07:47:19.731Z,25.4
2018-12-12T07:50:25.728Z,25.5
2018-12-12T07:53:31.799Z,25.4
2018-12-12T07:56:37.807Z,25.4
2018-12-12T07:59:43.890Z,25.5
2018-12-12T08:02:50.138Z,25.5
2018-12-12T08:05:57.222Z,25.6
2018-12-12T08:09:03.425Z,25.6
2018-12-12T08:12:09.890Z,25.6
2018-12-12T08:15:15.917Z,25.6
2018-12-12T08:18:21.785Z,25.6
2018-12-12T08:21:28.203Z,25.7
2018-12-12T08:24:34.136Z,25.7
2018-12-12T08:27:40.503Z,25.7
2018-12-12T08:30:46.400Z,25.7
2018-12-12T08:33:52.361Z,25.8
2018-12-12T08:36:58.371Z,25.7
2018-12-12T08:40:04.312Z,25.8
2018-12-12T08:43:10.283Z,25.8
2018-12-12T08:46:16.496Z,25.8
2018-12-12T08:49:23.838Z,25.7
2018-12-12T08:52:29.828Z,25.8
2018-12-12T08:55:36.815Z,25.8
2018-12-12T08:58:42.993Z,25.8
2018-12-12T09:01:48.993Z,25.8
2018-12-12T09:04:55.110Z,25.8
2018-12-12T09:08:02.057Z,25.8
2018-12-12T09:11:10.773Z,25.8
2018-12-12T09:14:16.785Z,25.9
2018-12-12T09:17:22.813Z,25.9
2018-12-12T09:20:28.651Z,26
2018-12-12T09:23:34.709Z,26
2018-12-12T09:26:40.841Z,26
2018-12-12T09:29:46.866Z,26
2018-12-12T09:32:53.789Z,26
2018-12-12T09:35:59.897Z,26
2018-12-12T09:39:05.859Z,26
2018-12-12T09:42:13.139Z,26
2018-12-12T09:45:21.753Z,26
2018-12-12T09:48:27.875Z,26
2018-12-12T09:51:33.899Z,26.1
2018-12-12T09:54:40.851Z,26.1
2018-12-12T09:57:46.836Z,26.1
2018-12-12T10:00:53.854Z,26.1
2018-12-12T10:04:01.046Z,26.1
2018-12-12T10:07:08.165Z,26.1
2018-12-12T10:10:14.214Z,26.1
2018-12-12T10:13:20.141Z,26.1
2018-12-12T10:16:26.149Z,26.1
2018-12-12T10:19:32.267Z,26.2
2018-12-12T10:22:38.346Z,26.2
2018-12-12T10:25:45.498Z,26.1
2018-12-12T10:28:51.507Z,26.1
2018-12-12T10:31:57.448Z,26.2
2018-12-12T10:35:03.538Z,26.2
2018-12-12T10:38:09.559Z,26.2
2018-12-12T10:41:15.568Z,26.2
2018-12-12T10:44:21.499Z,26.2
2018-12-12T10:47:29.704Z,26.2
2018-12-12T10:50:35.755Z,26.2
2018-12-12T10:53:41.689Z,26.2
2018-12-12T10:56:48.693Z,26.2
2018-12-12T10:59:54.845Z,26.2
2018-12-12T11:03:01.045Z,26.1
2018-12-12T11:06:07.080Z,26.2
2018-12-12T11:09:13.087Z,26.2
2018-12-12T11:12:19.155Z,26.2
2018-12-12T11:15:25.166Z,26.2
2018-12-12T11:18:31.053Z,26.2
2018-12-12T11:21:37.098Z,26.2
2018-12-12T11:24:43.238Z,26.2
2018-12-12T11:27:51.586Z,26.2
2018-12-12T11:31:00.569Z,26.2
2018-12-12T11:34:06.454Z,26.2
2018-12-12T11:37:12.515Z,26.2
2018-12-12T11:40:18.474Z,26.2
2018-12-12T11:43:24.340Z,26.2
2018-12-12T11:46:30.357Z,26.1
2018-12-12T11:49:37.431Z,26.1
2018-12-12T11:52:43.400Z,26.2
2018-12-12T11:55:49.506Z,26.2
2018-12-12T11:58:55.362Z,26.2
2018-12-12T12:02:02.370Z,26.2
2018-12-12T12:05:08.351Z,26.2
2018-12-12T12:08:15.525Z,26.3
2018-12-12T12:11:21.714Z,26.2
2018-12-12T12:14:27.658Z,26.2
2018-12-12T12:17:35.168Z,26.2
2018-12-12T12:20:41.027Z,26.1
2018-12-12T12:23:49.688Z,26.2
2018-12-12T12:26:55.603Z,26.1
2018-12-12T12:30:01.510Z,26.1
2018-12-12T12:33:07.577Z,26.1
2018-12-12T12:36:13.592Z,26.1
2018-12-12T12:39:19.554Z,26.1
2018-12-12T12:42:25.615Z,26.1
2018-12-12T12:45:31.539Z,26.1
2018-12-12T12:48:37.650Z,26.1
2018-12-12T12:51:43.715Z,26.1
2018-12-12T12:54:49.607Z,26.1
2018-12-12T12:57:55.658Z,26.1
2018-12-12T13:01:01.634Z,26.1
2018-12-12T13:04:09.742Z,26.1
2018-12-12T13:07:15.916Z,26.2
2018-12-12T13:10:23.050Z,26.1
2018-12-12T13:13:29.656Z,26.2
2018-12-12T13:16:36.539Z,26.1
2018-12-12T13:19:42.720Z,26.1
2018-12-12T13:22:48.673Z,26.1
2018-12-12T13:25:54.626Z,26.1
2018-12-12T13:29:00.854Z,26.1
2018-12-12T13:32:06.936Z,26.1
2018-12-12T13:35:12.891Z,26.1
2018-12-12T13:38:18.945Z,26.1
2018-12-12T13:41:24.974Z,26.1
2018-12-12T13:44:30.948Z,26.1
2018-12-12T13:47:39.159Z,26.1
2018-12-12T13:50:45.103Z,26.1
2018-12-12T13:53:52.145Z,26.1
2018-12-12T13:56:59.442Z,26.1
2018-12-12T14:00:08.185Z,26.1
2018-12-12T14:03:14.266Z,26.1
2018-12-12T14:06:20.346Z,26
2018-12-12T14:09:26.367Z,26.1
2018-12-12T14:12:32.354Z,26.1
2018-12-12T14:15:40.367Z,26.1
2018-12-12T14:18:46.344Z,26.1
2018-12-12T14:21:52.462Z,26
2018-12-12T14:24:58.382Z,26
2018-12-12T14:28:04.479Z,26
2018-12-12T14:31:10.635Z,26.1
2018-12-12T14:34:16.671Z,26
2018-12-12T14:37:22.684Z,26
2018-12-12T14:40:28.751Z,26
2018-12-12T14:43:34.681Z,26
2018-12-12T14:46:40.677Z,26
2018-12-12T14:49:46.945Z,26
2018-12-12T14:52:52.969Z,26
2018-12-12T14:55:58.809Z,26
2018-12-12T14:59:04.839Z,26
2018-12-12T15:02:10.717Z,26
2018-12-12T15:05:17.820Z,26
2018-12-12T15:08:24.058Z,26
2018-12-12T15:11:29.934Z,25.9
2018-12-12T15:14:35.954Z,25.9
2018-12-12T15:17:42.600Z,25.9
2018-12-12T15:20:48.753Z,25.9
2018-12-12T15:23:56.024Z,25.9
2018-12-12T15:27:02.163Z,25.9
2018-12-12T15:30:08.070Z,25.8
2018-12-12T15:33:14.085Z,26
2018-12-12T15:36:20.106Z,26
2018-12-12T15:39:26.078Z,26
2018-12-12T15:42:32.095Z,26
2018-12-12T15:45:40.739Z,26
2018-12-12T15:48:46.815Z,25.9
2018-12-12T15:51:52.721Z,25.8
2018-12-12T15:54:58.665Z,25.9
2018-12-12T15:58:04.617Z,25.9
2018-12-12T16:01:10.594Z,25.9
2018-12-12T16:04:16.638Z,26
2018-12-12T16:07:22.695Z,26
2018-12-12T16:10:28.702Z,26
2018-12-12T16:13:37.393Z,26
2018-12-12T16:16:43.268Z,26
2018-12-12T16:19:49.351Z,26
2018-12-12T16:22:55.288Z,25.9
2018-12-12T16:26:01.240Z,25.9
2018-12-12T16:29:10.052Z,25.9
2018-12-12T16:32:15.931Z,25.9
2018-12-12T16:35:21.944Z,26
2018-12-12T16:38:27.905Z,26
2018-12-12T16:41:34.003Z,25.9
2018-12-12T16:44:39.959Z,25.9
2018-12-12T16:47:45.919Z,25.9
2018-12-12T16:50:51.881Z,25.9
2018-12-12T16:53:57.920Z,26
2018-12-12T16:57:03.868Z,26
2018-12-12T17:00:09.910Z,26
2018-12-12T17:03:15.892Z,26
2018-12-12T17:06:21.836Z,26
2018-12-12T17:09:27.897Z,25.9
2018-12-12T17:12:33.911Z,25.9
2018-12-12T17:15:39.849Z,25.8
2018-12-12T17:18:45.801Z,25.8
2018-12-12T17:21:52.059Z,25.7
2018-12-12T17:24:58.196Z,25.7
2018-12-12T17:28:04.380Z,25.6
2018-12-12T17:31:10.384Z,25.6
2018-12-12T17:34:16.515Z,25.6
2018-12-12T17:37:23.444Z,25.5
2018-12-12T17:40:29.537Z,25.5
2018-12-12T17:43:35.457Z,25.5
2018-12-12T17:46:41.715Z,25.4
2018-12-12T17:49:47.893Z,25.4
2018-12-12T17:52:53.915Z,25.3
2018-12-12T17:56:00.135Z,25.3
2018-12-12T17:59:06.256Z,25.2
2018-12-12T18:02:15.172Z,25.2
2018-12-12T18:05:21.269Z,25.2
2018-12-12T18:08:27.599Z,25.2
2018-12-12T18:11:33.865Z,25.1
2018-12-12T18:14:40.095Z,25
2018-12-12T18:17:46.672Z,25
2018-12-12T18:20:53.414Z,25
2018-12-12T18:23:59.758Z,25
2018-12-12T18:27:06.250Z,24.9
2018-12-12T18:30:12.977Z,24.9
2018-12-12T18:33:19.718Z,24.9
2018-12-12T18:36:25.967Z,24.9
2018-12-12T18:39:32.145Z,24.9
2018-12-12T18:42:38.105Z,24.8
2018-12-12T18:45:46.624Z,24.8
2018-12-12T18:48:52.632Z,24.8
2018-12-12T18:51:58.538Z,24.7
2018-12-12T18:55:04.552Z,24.7
2018-12-12T18:58:10.559Z,24.7
2018-12-12T19:01:16.501Z,24.7
2018-12-12T19:04:22.383Z,24.7
2018-12-12T19:07:28.469Z,24.6
2018-12-12T19:10:34.536Z,24.6
2018-12-12T19:13:40.537Z,24.6
2018-12-12T19:16:46.638Z,24.5
2018-12-12T19:19:52.769Z,24.5
2018-12-12T19:22:58.745Z,24.5
2018-12-12T19:26:04.603Z,24.5
2018-12-12T19:29:10.569Z,24.5
2018-12-12T19:32:16.513Z,24.4
2018-12-12T19:35:22.591Z,24.4
2018-12-12T19:38:28.638Z,24.4
2018-12-12T19:41:34.511Z,24.4
2018-12-12T19:44:40.500Z,24.3
2018-12-12T19:47:46.486Z,24.3
2018-12-12T19:50:52.455Z,24.3
2018-12-12T19:53:58.475Z,24.3
2018-12-12T19:57:04.660Z,24.2
2018-12-12T20:00:10.625Z,24.2
2018-12-12T20:03:16.584Z,24.1
2018-12-12T20:06:22.609Z,24.1
2018-12-12T20:09:28.554Z,24
2018-12-12T20:12:34.485Z,24
2018-12-12T20:15:40.487Z,23.9
2018-12-12T20:18:46.489Z,23.9
2018-12-12T20:21:52.414Z,23.9
2018-12-12T20:24:59.515Z,23.9
2018-12-12T20:28:05.455Z,23.8
2018-12-12T20:31:11.315Z,23.8
2018-12-12T20:34:17.480Z,23.8
2018-12-12T20:37:23.440Z,23.7
2018-12-12T20:40:29.457Z,23.7
2018-12-12T20:43:35.432Z,23.7
2018-12-12T20:46:41.429Z,23.6
2018-12-12T20:49:47.471Z,23.6
2018-12-12T20:52:53.493Z,23.5
2018-12-12T20:55:59.435Z,23.5
2018-12-12T20:59:05.521Z,23.5
2018-12-12T21:02:11.573Z,23.5
2018-12-12T21:05:17.526Z,23.4
2018-12-12T21:08:23.484Z,23.4
2018-12-12T21:11:29.444Z,23.4
2018-12-12T21:14:35.449Z,23.3
2018-12-12T21:17:41.466Z,23.3
2018-12-12T21:20:47.468Z,23.3
2018-12-12T21:23:53.462Z,23.3
2018-12-12T21:26:59.381Z,23.2
2018-12-12T21:30:05.317Z,23.2
2018-12-12T21:33:17.917Z,23.2
2018-12-12T21:36:23.836Z,23.2
2018-12-12T21:39:29.777Z,23.2
2018-12-12T21:42:35.742Z,23.1
2018-12-12T21:45:41.686Z,23.1
2018-12-12T21:48:47.717Z,23.1
2018-12-12T21:51:53.622Z,23.1
2018-12-12T21:54:59.534Z,23
2018-12-12T21:58:05.424Z,23
2018-12-12T22:01:11.419Z,23
2018-12-12T22:04:17.457Z,23
2018-12-12T22:07:23.467Z,22.9
2018-12-12T22:10:29.364Z,22.9
2018-12-12T22:13:35.377Z,22.9
2018-12-12T22:16:41.347Z,22.8
2018-12-12T22:19:47.316Z,22.8
2018-12-12T22:22:53.272Z,22.8
2018-12-12T22:26:00.554Z,22.8
2018-12-12T22:29:06.495Z,22.8
2018-12-12T22:32:12.454Z,22.7
2018-12-12T22:35:18.509Z,22.7
2018-12-12T22:38:24.442Z,22.7
2018-12-12T22:41:30.457Z,22.6
2018-12-12T22:44:36.464Z,22.6
2018-12-12T22:47:42.622Z,22.6
2018-12-12T22:50:48.478Z,22.6
2018-12-12T22:53:54.407Z,22.6
2018-12-12T22:57:00.337Z,22.5
2018-12-12T23:00:06.496Z,22.6
2018-12-12T23:03:12.410Z,22.5
2018-12-12T23:06:20.435Z,22.5
2018-12-12T23:09:26.480Z,22.5
2018-12-12T23:12:32.412Z,22.5
2018-12-12T23:15:41.079Z,22.4
2018-12-12T23:18:47.018Z,22.4
2018-12-12T23:21:53.009Z,22.4
2018-12-12T23:24:58.941Z,22.4
2018-12-12T23:28:04.975Z,22.3
2018-12-12T23:31:10.995Z,22.3
2018-12-12T23:34:16.911Z,22.3
2018-12-12T23:37:22.822Z,22.3
2018-12-12T23:40:28.867Z,22.3
2018-12-12T23:43:34.906Z,22.3
2018-12-12T23:46:40.955Z,22.2
2018-12-12T23:49:46.903Z,22.2
2018-12-12T23:52:52.842Z,22.2
2018-12-12T23:55:58.740Z,22.2
2018-12-12T23:59:04.682Z,22.2
